Time;durP1;ratioP1;P1;durP2;ratioP2;P2;SDS_P1;SDS_P2;PMS_P1;PMS_P2;Temp;Humidity;BMP_temperature;BMP_pressure;BME280_temperature;BME280_humidity;BME280_pressure;Samples;Min_cycle;Max_cycle;Signal;HPM_P1;HPM_P2
2023/12/25 00:02:19;;;;;;;2.85;0.52;;;11.10;99.90;;;;;;5009788;28;20037;-57
2023/12/25 00:04:45;;;;;;;0.22;0.20;;;11.10;99.90;;;;;;5012114;28;20030;-51
2023/12/25 00:07:11;;;;;;;1.30;0.40;;;11.10;99.90;;;;;;5011489;28;20105;-53
2023/12/25 00:09:37;;;;;;;0.47;0.30;;;11.10;99.90;;;;;;5013121;28;20057;-55
2023/12/25 00:12:02;;;;;;;1.35;0.50;;;11.10;99.90;;;;;;5013222;28;20106;-53
2023/12/25 00:14:28;;;;;;;1.00;0.57;;;11.10;99.90;;;;;;5012935;28;20049;-54
2023/12/25 00:16:54;;;;;;;0.73;0.52;;;11.00;99.90;;;;;;5011184;28;20033;-52
2023/12/25 00:19:19;;;;;;;0.93;0.40;;;11.00;99.90;;;;;;5009991;28;20383;-51
2023/12/25 00:21:45;;;;;;;0.50;0.50;;;11.10;99.90;;;;;;5011505;28;20038;-52
2023/12/25 00:24:10;;;;;;;0.63;0.25;;;11.00;99.90;;;;;;5011730;28;20022;-56
2023/12/25 00:26:40;;;;;;;0.50;0.40;;;11.00;99.90;;;;;;5012944;28;20026;-51
2023/12/25 00:29:09;;;;;;;0.30;0.30;;;11.00;99.90;;;;;;5012746;28;20017;-51
2023/12/25 00:31:35;;;;;;;2.00;0.40;;;11.00;99.90;;;;;;5012791;28;20034;-53
2023/12/25 00:34:00;;;;;;;2.05;0.35;;;11.00;99.90;;;;;;5010646;28;20105;-52
2023/12/25 00:36:26;;;;;;;1.35;0.32;;;11.00;99.90;;;;;;5012273;28;20037;-51
2023/12/25 00:38:51;;;;;;;0.75;0.55;;;11.00;99.90;;;;;;5060888;23;20103;-52
2023/12/25 00:41:17;;;;;;;0.47;0.38;;;11.00;99.90;;;;;;5024474;28;20021;-51
2023/12/25 00:43:42;;;;;;;8.18;0.55;;;11.00;99.90;;;;;;5021236;28;20647;-49
2023/12/25 00:46:08;;;;;;;0.47;0.30;;;11.00;99.90;;;;;;5024181;28;20048;-50
2023/12/25 00:48:34;;;;;;;0.52;0.52;;;11.10;99.90;;;;;;5018750;28;20072;-51
2023/12/25 00:50:59;;;;;;;1.42;0.32;;;11.10;99.90;;;;;;5022559;28;20095;-50
2023/12/25 00:53:25;;;;;;;0.60;0.30;;;11.10;99.90;;;;;;5023079;28;20033;-52
2023/12/25 00:55:51;;;;;;;0.93;0.40;;;11.10;99.90;;;;;;5021648;28;20030;-53
2023/12/25 00:58:16;;;;;;;0.20;0.20;;;11.10;99.90;;;;;;5024042;28;20025;-50
2023/12/25 01:00:42;;;;;;;0.20;0.20;;;11.10;99.90;;;;;;5020946;28;20018;-56
2023/12/25 01:03:07;;;;;;;0.13;0.10;;;11.10;99.90;;;;;;5019667;28;20395;-49
2023/12/25 01:05:33;;;;;;;0.30;0.30;;;11.20;99.90;;;;;;5011143;28;20025;-52
2023/12/25 01:07:59;;;;;;;1.88;0.20;;;11.20;99.90;;;;;;5006964;28;20105;-56
2023/12/25 01:10:24;;;;;;;0.43;0.30;;;11.20;99.90;;;;;;5012099;28;20022;-56
2023/12/25 01:12:50;;;;;;;0.32;0.32;;;11.20;99.90;;;;;;5020808;28;20036;-50
2023/12/25 01:15:15;;;;;;;0.70;0.30;;;11.20;99.90;;;;;;5005685;28;20458;-51
2023/12/25 01:17:41;;;;;;;0.52;0.20;;;11.20;99.90;;;;;;5018458;28;20026;-55
2023/12/25 01:20:07;;;;;;;1.45;0.30;;;11.20;99.90;;;;;;5022668;28;20356;-51
2023/12/25 01:22:32;;;;;;;0.38;0.30;;;11.20;99.90;;;;;;5017222;28;20101;-49
2023/12/25 01:24:58;;;;;;;0.20;0.20;;;11.30;99.90;;;;;;5022013;28;20124;-53
2023/12/25 01:27:24;;;;;;;0.43;0.25;;;11.20;99.90;;;;;;5022809;28;20041;-52
2023/12/25 01:29:50;;;;;;;1.70;0.30;;;11.30;99.90;;;;;;5020793;28;20029;-53
2023/12/25 01:32:16;;;;;;;1.13;0.30;;;11.30;99.90;;;;;;5012732;28;20033;-60
2023/12/25 01:34:41;;;;;;;1.83;0.30;;;11.30;99.90;;;;;;5008306;28;20033;-50
2023/12/25 01:37:07;;;;;;;0.40;0.35;;;11.30;99.90;;;;;;5012110;28;20034;-56
2023/12/25 01:39:32;;;;;;;1.65;0.35;;;11.30;99.90;;;;;;5011570;28;20108;-54
2023/12/25 01:41:58;;;;;;;0.30;0.30;;;11.30;99.90;;;;;;4993953;28;20472;-54
2023/12/25 01:44:24;;;;;;;0.50;0.43;;;11.20;99.90;;;;;;5011506;28;20488;-52
2023/12/25 01:46:49;;;;;;;0.38;0.38;;;11.30;99.90;;;;;;5009897;28;20025;-51
2023/12/25 01:49:15;;;;;;;0.22;0.22;;;11.30;99.90;;;;;;5010516;28;20022;-52
2023/12/25 01:51:40;;;;;;;0.28;0.28;;;11.30;99.90;;;;;;5011691;28;20032;-54
2023/12/25 01:54:07;;;;;;;0.45;0.40;;;11.30;99.90;;;;;;5011245;28;20037;-49
2023/12/25 01:56:33;;;;;;;0.55;0.30;;;11.30;99.90;;;;;;5011537;28;20554;-55
2023/12/25 01:58:59;;;;;;;0.30;0.30;;;11.30;99.90;;;;;;5011180;28;20021;-52
2023/12/25 02:01:24;;;;;;;0.55;0.55;;;11.30;99.90;;;;;;5007238;28;20018;-51
2023/12/25 02:03:50;;;;;;;2.28;0.20;;;11.30;99.90;;;;;;5006470;28;20075;-51
2023/12/25 02:06:16;;;;;;;0.30;0.30;;;11.40;99.90;;;;;;5011150;28;20017;-49
2023/12/25 02:08:42;;;;;;;0.28;0.28;;;11.40;99.90;;;;;;5010973;28;20037;-50
2023/12/25 02:11:07;;;;;;;0.30;0.30;;;11.40;99.90;;;;;;5010380;28;20472;-53
2023/12/25 02:13:33;;;;;;;0.20;0.20;;;11.40;99.90;;;;;;5019407;28;20021;-52
2023/12/25 02:16:00;;;;;;;0.30;0.30;;;11.30;99.90;;;;;;5013670;28;20431;-49
2023/12/25 02:18:26;;;;;;;1.00;0.43;;;11.20;99.90;;;;;;5010869;28;20014;-56
2023/12/25 02:20:52;;;;;;;0.30;0.13;;;11.20;99.90;;;;;;5010787;28;20053;-54
2023/12/25 02:23:19;;;;;;;1.33;0.30;;;11.10;99.90;;;;;;5011065;28;20018;-57
2023/12/25 02:25:56;;;;;;;0.40;0.40;;;11.10;99.90;;;;;;5010337;28;20096;-54
2023/12/25 02:28:22;;;;;;;1.05;0.40;;;11.10;99.90;;;;;;5014253;28;20017;-53
2023/12/25 02:30:48;;;;;;;0.50;0.50;;;11.10;99.90;;;;;;5011684;28;20495;-54
2023/12/25 02:33:13;;;;;;;3.40;0.30;;;11.10;99.90;;;;;;5007094;28;20057;-49
2023/12/25 02:35:39;;;;;;;0.20;0.20;;;11.00;99.90;;;;;;5014781;28;20080;-51
2023/12/25 02:38:05;;;;;;;0.43;0.20;;;11.10;99.90;;;;;;5006732;28;20056;-51
2023/12/25 02:40:30;;;;;;;1.67;0.30;;;11.10;99.90;;;;;;5017693;28;20044;-55
2023/12/25 02:42:56;;;;;;;0.32;0.20;;;11.10;99.90;;;;;;5018162;28;20033;-53
2023/12/25 02:45:21;;;;;;;0.20;0.15;;;11.10;99.90;;;;;;5008772;28;20045;-49
2023/12/25 02:47:47;;;;;;;0.22;0.22;;;11.10;99.90;;;;;;5010622;28;20029;-53
2023/12/25 02:50:13;;;;;;;2.28;0.32;;;11.20;99.90;;;;;;5010799;28;20567;-51
2023/12/25 02:52:39;;;;;;;1.15;0.32;;;11.20;99.90;;;;;;5010349;28;20030;-55
2023/12/25 02:55:05;;;;;;;0.15;0.15;;;11.20;99.90;;;;;;5015028;28;20026;-50
2023/12/25 02:57:30;;;;;;;0.10;0.10;;;11.20;99.90;;;;;;5015873;28;20025;-50
2023/12/25 02:59:56;;;;;;;0.65;0.20;;;11.20;99.90;;;;;;5008927;28;20037;-52
2023/12/25 03:02:21;;;;;;;0.22;0.20;;;11.20;99.90;;;;;;5010393;28;20026;-49
2023/12/25 03:04:47;;;;;;;0.30;0.30;;;11.20;99.90;;;;;;5010597;28;20030;-54
2023/12/25 03:07:13;;;;;;;0.20;0.20;;;11.20;99.90;;;;;;5010436;28;20498;-52
2023/12/25 03:09:38;;;;;;;0.30;0.30;;;11.20;99.90;;;;;;5008654;28;20056;-50
2023/12/25 03:12:04;;;;;;;0.80;0.30;;;11.20;99.90;;;;;;5006575;28;20029;-53
2023/12/25 03:14:29;;;;;;;0.22;0.22;;;11.10;99.90;;;;;;5009274;28;21046;-52
2023/12/25 03:16:55;;;;;;;0.20;0.20;;;11.10;99.90;;;;;;5010103;28;20037;-54
2023/12/25 03:19:20;;;;;;;0.43;0.32;;;11.10;99.90;;;;;;5010165;28;20034;-51
2023/12/25 03:21:46;;;;;;;0.28;0.20;;;11.00;99.90;;;;;;5010049;28;20499;-49
2023/12/25 03:24:12;;;;;;;0.20;0.20;;;10.90;99.90;;;;;;5013114;28;20038;-51
2023/12/25 03:26:37;;;;;;;1.27;0.22;;;10.90;99.90;;;;;;5014126;28;20053;-52
2023/12/25 03:29:04;;;;;;;0.55;0.30;;;10.80;99.90;;;;;;5008713;28;20034;-49
2023/12/25 03:31:30;;;;;;;0.25;0.20;;;10.90;99.90;;;;;;5010405;28;20052;-52
2023/12/25 03:33:58;;;;;;;0.20;0.20;;;10.80;99.90;;;;;;5013829;28;20072;-54
2023/12/25 03:36:24;;;;;;;0.15;0.15;;;10.80;99.90;;;;;;5018787;28;20018;-58
2023/12/25 03:38:50;;;;;;;0.35;0.20;;;10.80;99.90;;;;;;5018191;28;20395;-50
2023/12/25 03:41:15;;;;;;;0.60;0.60;;;10.80;99.90;;;;;;5020967;28;20026;-55
2023/12/25 03:43:41;;;;;;;0.82;0.20;;;10.80;99.90;;;;;;5021756;28;20026;-56
2023/12/25 03:46:07;;;;;;;0.73;0.40;;;10.80;99.90;;;;;;5021398;28;20022;-53
2023/12/25 03:48:32;;;;;;;1.30;0.40;;;10.80;99.90;;;;;;5015998;28;20061;-49
2023/12/25 03:50:58;;;;;;;0.52;0.30;;;10.80;99.90;;;;;;5022794;28;20081;-52
2023/12/25 03:53:24;;;;;;;0.57;0.22;;;10.80;99.90;;;;;;5024532;28;20021;-52
2023/12/25 03:55:50;;;;;;;1.65;0.50;;;10.80;99.90;;;;;;5022329;28;20030;-51
2023/12/25 03:58:15;;;;;;;2.97;1.33;;;10.90;99.90;;;;;;5025505;28;20677;-52
2023/12/25 04:00:41;;;;;;;6.05;1.17;;;10.90;99.90;;;;;;5022317;28;20030;-53
2023/12/25 04:03:06;;;;;;;2.20;0.93;;;10.90;99.90;;;;;;5019821;28;20026;-51
2023/12/25 04:05:32;;;;;;;0.38;0.32;;;10.90;99.90;;;;;;5016784;28;20057;-53
2023/12/25 04:07:57;;;;;;;0.43;0.43;;;10.90;99.90;;;;;;5023074;28;20427;-50
2023/12/25 04:10:23;;;;;;;1.58;0.60;;;10.90;99.90;;;;;;5018966;28;20025;-51
2023/12/25 04:12:49;;;;;;;3.80;0.82;;;10.90;99.90;;;;;;5021731;28;20038;-55
2023/12/25 04:15:14;;;;;;;0.47;0.47;;;10.90;99.90;;;;;;5025120;28;20121;-52
2023/12/25 04:17:40;;;;;;;0.77;0.43;;;10.90;99.90;;;;;;5021834;28;20018;-55
2023/12/25 04:20:06;;;;;;;0.55;0.47;;;10.90;99.90;;;;;;5018538;28;20057;-54
2023/12/25 04:22:31;;;;;;;4.85;1.00;;;10.90;99.90;;;;;;5013400;28;20029;-55
2023/12/25 04:24:57;;;;;;;1.67;0.60;;;10.90;99.90;;;;;;4998355;28;20433;-55
2023/12/25 04:27:23;;;;;;;0.50;0.50;;;10.90;99.90;;;;;;5024271;28;20038;-52
2023/12/25 04:29:48;;;;;;;0.50;0.28;;;10.90;99.90;;;;;;5021535;28;20487;-52
2023/12/25 04:32:14;;;;;;;1.80;0.70;;;10.90;99.90;;;;;;5024399;28;20036;-55
2023/12/25 04:34:39;;;;;;;3.78;0.60;;;10.90;99.90;;;;;;5016359;28;20113;-49
2023/12/25 04:37:05;;;;;;;1.10;0.63;;;10.90;99.90;;;;;;5015545;28;21244;-49
2023/12/25 04:39:33;;;;;;;7.03;1.00;;;10.90;99.90;;;;;;5016529;28;20022;-49
2023/12/25 04:41:58;;;;;;;4.68;2.03;;;10.90;99.90;;;;;;5022590;28;20041;-54
2023/12/25 04:44:24;;;;;;;2.90;0.73;;;11.00;99.90;;;;;;5023627;28;20065;-54
2023/12/25 04:46:50;;;;;;;0.32;0.32;;;10.90;99.90;;;;;;5021466;28;20486;-51
2023/12/25 04:49:15;;;;;;;0.82;0.70;;;11.00;99.90;;;;;;5015856;28;20036;-51
2023/12/25 04:51:41;;;;;;;0.60;0.60;;;11.00;99.90;;;;;;5016878;28;20054;-53
2023/12/25 04:54:06;;;;;;;1.27;0.60;;;11.10;99.90;;;;;;5023274;28;20080;-51
2023/12/25 04:56:32;;;;;;;1.73;0.43;;;11.10;99.90;;;;;;5022433;28;20054;-49
2023/12/25 04:58:58;;;;;;;2.00;0.70;;;11.10;99.90;;;;;;5022051;28;20036;-49
2023/12/25 05:01:23;;;;;;;2.97;0.70;;;11.10;99.90;;;;;;5023266;28;20029;-54
2023/12/25 05:03:49;;;;;;;1.00;0.90;;;11.10;99.90;;;;;;5013050;28;20041;-55
2023/12/25 05:06:14;;;;;;;0.55;0.50;;;11.10;99.90;;;;;;5020153;28;20045;-51
2023/12/25 05:08:40;;;;;;;2.30;0.40;;;11.10;99.90;;;;;;5020834;28;20034;-49
2023/12/25 05:11:06;;;;;;;1.35;0.60;;;11.20;99.90;;;;;;5023311;28;20585;-52
2023/12/25 05:13:31;;;;;;;2.55;0.60;;;11.20;99.90;;;;;;5021972;28;20128;-50
2023/12/25 05:15:57;;;;;;;3.03;1.70;;;11.20;99.90;;;;;;5021737;28;20314;-50
2023/12/25 05:18:23;;;;;;;1.35;0.65;;;11.20;99.90;;;;;;5014742;28;20026;-50
2023/12/25 05:20:48;;;;;;;1.63;0.77;;;11.20;99.90;;;;;;5018849;28;20022;-53
2023/12/25 05:23:14;;;;;;;2.35;1.05;;;11.20;99.90;;;;;;5023605;28;20025;-51
2023/12/25 05:25:40;;;;;;;0.90;0.73;;;11.20;99.90;;;;;;5020587;28;20084;-49
2023/12/25 05:28:05;;;;;;;2.20;0.98;;;11.20;99.90;;;;;;5022769;28;20322;-49
2023/12/25 05:30:31;;;;;;;0.40;0.30;;;11.20;99.90;;;;;;5021796;28;20500;-50
2023/12/25 05:32:57;;;;;;;1.05;0.30;;;11.10;99.90;;;;;;5013048;28;20381;-51
2023/12/25 05:35:23;;;;;;;1.25;0.55;;;11.10;99.90;;;;;;5020001;28;20061;-50
2023/12/25 05:37:49;;;;;;;2.05;0.20;;;11.10;99.90;;;;;;5019290;28;20029;-53
2023/12/25 05:40:15;;;;;;;0.30;0.30;;;11.10;99.90;;;;;;5023387;28;20021;-52
2023/12/25 05:42:41;;;;;;;0.40;0.30;;;11.10;99.90;;;;;;5019925;28;20037;-56
2023/12/25 05:45:07;;;;;;;0.52;0.40;;;11.10;99.90;;;;;;5020001;28;20025;-50
2023/12/25 05:47:33;;;;;;;0.65;0.40;;;11.00;99.90;;;;;;5014123;28;20127;-55
2023/12/25 05:49:59;;;;;;;2.05;0.40;;;11.00;99.90;;;;;;5021019;28;20029;-51
2023/12/25 05:52:24;;;;;;;1.55;0.40;;;11.00;99.90;;;;;;5021914;28;20060;-50
2023/12/25 05:54:50;;;;;;;0.73;0.73;;;11.00;99.90;;;;;;5019705;28;20018;-53
2023/12/25 05:57:16;;;;;;;1.50;0.60;;;11.00;99.90;;;;;;5022887;28;20030;-50
2023/12/25 05:59:41;;;;;;;1.00;0.60;;;10.90;99.90;;;;;;5017412;28;20109;-51
2023/12/25 06:02:08;;;;;;;0.50;0.50;;;10.90;99.90;;;;;;5014880;28;20108;-50
2023/12/25 06:04:33;;;;;;;0.90;0.80;;;10.90;99.90;;;;;;5016799;28;20181;-52
2023/12/25 06:06:59;;;;;;;1.55;0.50;;;10.80;99.90;;;;;;5020611;28;20038;-50
2023/12/25 06:09:25;;;;;;;2.53;0.98;;;10.80;99.90;;;;;;5021472;28;20021;-51
2023/12/25 06:11:51;;;;;;;0.40;0.40;;;10.80;99.90;;;;;;5019918;28;20101;-52
2023/12/25 06:14:17;;;;;;;0.85;0.43;;;10.80;99.90;;;;;;5021063;28;20562;-51
2023/12/25 06:16:42;;;;;;;0.43;0.40;;;10.80;99.90;;;;;;4998490;28;20025;-49
2023/12/25 06:19:08;;;;;;;0.50;0.38;;;10.70;99.90;;;;;;5022054;28;20033;-50
2023/12/25 06:21:34;;;;;;;0.95;0.30;;;10.70;99.90;;;;;;5020778;28;20096;-49
2023/12/25 06:23:59;;;;;;;0.25;0.20;;;10.70;99.90;;;;;;5020826;28;20033;-54
2023/12/25 06:26:25;;;;;;;1.40;0.30;;;10.70;99.90;;;;;;5021618;28;20101;-56
2023/12/25 06:28:50;;;;;;;1.58;0.15;;;10.70;99.90;;;;;;5014496;28;20038;-52
2023/12/25 06:31:16;;;;;;;0.88;0.65;;;10.70;99.90;;;;;;5017339;28;20069;-50
2023/12/25 06:33:42;;;;;;;0.38;0.38;;;10.70;99.90;;;;;;5015625;28;20029;-49
2023/12/25 06:36:07;;;;;;;0.55;0.20;;;10.60;99.90;;;;;;5021617;28;20042;-52
2023/12/25 06:38:33;;;;;;;0.17;0.17;;;10.60;99.90;;;;;;5020349;28;20065;-49
2023/12/25 06:41:00;;;;;;;1.88;0.40;;;10.60;99.90;;;;;;5020569;28;20100;-53
2023/12/25 06:43:26;;;;;;;0.40;0.40;;;10.60;99.90;;;;;;5016907;28;20022;-50
2023/12/25 06:45:51;;;;;;;0.55;0.30;;;10.60;99.90;;;;;;5014669;28;20033;-53
2023/12/25 06:48:17;;;;;;;0.60;0.22;;;10.60;99.90;;;;;;5018165;28;20029;-51
2023/12/25 06:50:42;;;;;;;0.52;0.20;;;10.60;99.90;;;;;;5018624;28;20511;-52
2023/12/25 06:53:08;;;;;;;5.72;0.30;;;10.50;99.90;;;;;;5021401;28;20041;-54
2023/12/25 06:55:34;;;;;;;0.45;0.45;;;10.50;99.90;;;;;;5019770;28;20033;-51
2023/12/25 06:57:59;;;;;;;0.93;0.60;;;10.60;99.90;;;;;;5020126;28;20076;-49
2023/12/25 07:00:25;;;;;;;0.40;0.10;;;10.50;99.90;;;;;;5015425;28;20101;-53
2023/12/25 07:02:51;;;;;;;0.28;0.17;;;10.50;99.90;;;;;;5015407;28;20022;-52
2023/12/25 07:05:16;;;;;;;0.20;0.20;;;10.50;99.90;;;;;;5021830;28;20041;-50
2023/12/25 07:07:42;;;;;;;5.63;0.63;;;10.50;99.90;;;;;;5018759;28;20036;-51
2023/12/25 07:10:08;;;;;;;1.17;0.60;;;10.50;99.90;;;;;;5021251;28;20121;-53
2023/12/25 07:12:34;;;;;;;0.15;0.15;;;10.50;99.90;;;;;;5020268;28;20495;-51
2023/12/25 07:14:59;;;;;;;2.30;0.40;;;10.50;99.90;;;;;;5014507;28;20030;-55
2023/12/25 07:17:25;;;;;;;0.10;0.10;;;10.50;99.90;;;;;;5024579;28;20096;-51
2023/12/25 07:19:50;;;;;;;2.03;0.40;;;10.40;99.90;;;;;;5020777;28;20014;-51
2023/12/25 07:22:16;;;;;;;0.43;0.20;;;10.40;99.90;;;;;;5025744;28;20121;-55
2023/12/25 07:24:42;;;;;;;6.63;3.53;;;10.40;99.90;;;;;;5021463;28;20073;-55
2023/12/25 07:27:08;;;;;;;46.47;24.48;;;10.40;99.90;;;;;;5013852;28;20060;-52
2023/12/25 07:29:33;;;;;;;23.05;13.50;;;10.40;99.90;;;;;;5019879;28;20028;-53
2023/12/25 07:31:59;;;;;;;10.40;5.10;;;10.40;99.90;;;;;;5022520;28;20085;-52
2023/12/25 07:34:25;;;;;;;6.57;4.28;;;10.40;99.90;;;;;;5013410;28;20045;-52
2023/12/25 07:36:50;;;;;;;7.43;5.40;;;10.40;99.90;;;;;;5018563;28;20365;-52
2023/12/25 07:39:16;;;;;;;5.88;5.28;;;10.40;99.90;;;;;;5025517;28;20044;-54
2023/12/25 07:41:45;;;;;;;4.30;3.80;;;10.40;99.90;;;;;;5022319;28;20397;-53
2023/12/25 07:44:12;;;;;;;3.28;2.47;;;10.40;99.90;;;;;;5023057;28;20040;-53
2023/12/25 07:46:37;;;;;;;3.13;2.38;;;10.40;99.90;;;;;;5019243;28;20030;-50
2023/12/25 07:49:03;;;;;;;2.20;1.98;;;10.40;99.90;;;;;;5017529;28;20022;-56
2023/12/25 07:51:28;;;;;;;2.45;0.68;;;10.40;99.90;;;;;;5017880;28;20100;-51
2023/12/25 07:53:54;;;;;;;1.42;0.52;;;10.50;99.90;;;;;;5022648;28;20032;-52
2023/12/25 07:56:19;;;;;;;1.58;1.17;;;10.40;99.90;;;;;;5024967;28;20068;-53
2023/12/25 07:58:45;;;;;;;0.70;0.70;;;10.50;99.90;;;;;;5021089;28;20022;-57
2023/12/25 08:01:12;;;;;;;2.47;2.20;;;10.40;99.90;;;;;;5023366;28;20053;-49
2023/12/25 08:03:38;;;;;;;8.13;3.67;;;10.40;99.90;;;;;;5018137;28;20025;-49
2023/12/25 08:06:05;;;;;;;16.58;8.63;;;10.40;99.90;;;;;;5013238;28;20022;-49
2023/12/25 08:08:30;;;;;;;11.07;5.85;;;10.40;99.90;;;;;;5019244;28;20029;-50
2023/12/25 08:10:56;;;;;;;12.52;6.18;;;10.40;99.90;;;;;;5022560;28;20169;-52
2023/12/25 08:13:21;;;;;;;5.65;3.13;;;10.40;99.90;;;;;;5019197;28;20107;-52
2023/12/25 08:15:47;;;;;;;5.53;2.08;;;10.40;99.90;;;;;;5014099;28;20026;-49
2023/12/25 08:18:12;;;;;;;4.60;2.72;;;10.40;99.90;;;;;;5019576;28;20052;-49
2023/12/25 08:20:38;;;;;;;5.57;2.80;;;10.40;99.90;;;;;;5017922;28;20084;-53
2023/12/25 08:23:04;;;;;;;10.95;5.78;;;10.40;99.90;;;;;;5023306;28;20087;-51
2023/12/25 08:25:29;;;;;;;14.63;7.80;;;10.40;99.90;;;;;;5022888;28;20372;-52
2023/12/25 08:27:55;;;;;;;5.63;3.78;;;10.50;99.90;;;;;;5020347;28;20127;-49
2023/12/25 08:30:21;;;;;;;6.68;3.95;;;10.50;99.90;;;;;;5019083;28;20434;-52
2023/12/25 08:32:47;;;;;;;5.63;3.35;;;10.50;99.90;;;;;;5015262;28;20057;-55
2023/12/25 08:35:12;;;;;;;6.30;4.35;;;10.50;99.90;;;;;;5012378;28;20062;-50
2023/12/25 08:37:39;;;;;;;9.50;5.47;;;10.40;99.90;;;;;;5020555;28;20033;-50
2023/12/25 08:40:05;;;;;;;5.35;3.13;;;10.40;99.90;;;;;;5004978;28;20392;-53
2023/12/25 08:42:31;;;;;;;2.03;1.33;;;10.50;99.90;;;;;;5020008;28;20033;-51
2023/12/25 08:44:57;;;;;;;3.35;2.00;;;10.50;99.90;;;;;;5018822;28;20034;-52
2023/12/25 08:47:23;;;;;;;4.18;2.70;;;10.50;99.90;;;;;;5012979;28;20439;-49
2023/12/25 08:49:49;;;;;;;5.80;2.50;;;10.50;99.90;;;;;;5013478;28;20026;-51
2023/12/25 08:52:15;;;;;;;2.15;1.42;;;10.50;99.90;;;;;;5015533;28;20033;-50
2023/12/25 08:54:41;;;;;;;11.05;6.80;;;10.50;99.90;;;;;;5012319;28;20480;-49
2023/12/25 08:57:07;;;;;;;13.80;5.22;;;10.50;99.90;;;;;;5022654;28;20028;-49
2023/12/25 08:59:32;;;;;;;2.88;1.10;;;10.50;99.90;;;;;;5017143;28;20554;-53
2023/12/25 09:01:58;;;;;;;3.65;2.42;;;10.60;99.90;;;;;;5015931;28;20788;-57
2023/12/25 09:04:23;;;;;;;2.60;1.48;;;10.60;99.90;;;;;;4998923;28;20554;-54
2023/12/25 09:06:49;;;;;;;3.53;2.38;;;10.60;99.90;;;;;;5020748;28;20100;-53
2023/12/25 09:09:15;;;;;;;3.13;2.13;;;10.60;99.90;;;;;;5023825;28;20041;-50
2023/12/25 09:11:41;;;;;;;3.20;2.15;;;10.60;99.90;;;;;;5015556;28;20496;-55
2023/12/25 09:14:06;;;;;;;3.47;2.25;;;10.60;99.90;;;;;;5013984;28;20415;-51
2023/12/25 09:16:32;;;;;;;5.40;2.90;;;10.70;99.90;;;;;;5012038;28;20436;-50
2023/12/25 09:18:58;;;;;;;6.55;2.95;;;10.70;99.90;;;;;;5017856;28;20025;-50
2023/12/25 09:21:23;;;;;;;6.30;2.92;;;10.70;99.90;;;;;;5017063;28;20026;-49
2023/12/25 09:23:49;;;;;;;3.17;1.85;;;10.70;99.90;;;;;;5016087;28;20037;-53
2023/12/25 09:26:20;;;;;;;3.38;1.60;;;10.70;99.90;;;;;;5018818;28;20026;-54
2023/12/25 09:28:47;;;;;;;2.20;1.30;;;10.80;99.90;;;;;;5015055;28;20038;-51
2023/12/25 09:31:13;;;;;;;2.65;1.50;;;10.80;99.90;;;;;;5011678;28;20022;-52
2023/12/25 09:33:39;;;;;;;4.88;2.10;;;10.80;99.90;;;;;;5019662;28;20045;-53
2023/12/25 09:36:08;;;;;;;4.65;2.67;;;10.90;99.90;;;;;;5021523;28;20096;-49
2023/12/25 09:38:34;;;;;;;4.13;2.10;;;10.90;99.90;;;;;;5015780;28;20034;-51
2023/12/25 09:41:00;;;;;;;6.28;3.45;;;11.00;99.90;;;;;;5021208;28;20033;-50
2023/12/25 09:43:27;;;;;;;10.48;4.65;;;11.00;99.90;;;;;;5022228;28;20562;-50
2023/12/25 09:45:54;;;;;;;6.38;3.45;;;11.00;99.90;;;;;;5019095;28;20030;-50
2023/12/25 09:48:19;;;;;;;3.00;1.92;;;11.00;99.90;;;;;;5017102;28;20029;-51
2023/12/25 09:50:45;;;;;;;2.35;1.58;;;11.10;99.90;;;;;;5019578;28;20488;-52
2023/12/25 09:53:11;;;;;;;4.57;2.72;;;11.10;99.90;;;;;;5020254;28;20025;-53
2023/12/25 09:55:37;;;;;;;2.50;1.33;;;11.00;99.90;;;;;;5020369;28;20036;-55
2023/12/25 09:58:07;;;;;;;1.25;0.98;;;11.00;99.90;;;;;;5021374;28;20458;-53
2023/12/25 10:00:33;;;;;;;4.20;1.88;;;11.00;99.90;;;;;;5017911;28;20033;-53
2023/12/25 10:03:02;;;;;;;4.80;1.92;;;11.00;99.90;;;;;;5020564;28;20361;-54
2023/12/25 10:05:28;;;;;;;9.05;3.88;;;11.00;99.90;;;;;;5021259;28;20057;-49
2023/12/25 10:07:53;;;;;;;5.35;2.10;;;11.00;99.90;;;;;;5020113;28;20522;-49
2023/12/25 10:10:26;;;;;;;13.93;4.75;;;11.00;99.90;;;;;;5018399;28;20488;-54
2023/12/25 10:12:52;;;;;;;11.18;3.58;;;11.00;99.90;;;;;;5019708;28;20523;-49
2023/12/25 10:15:17;;;;;;;16.75;4.90;;;11.00;99.90;;;;;;5016529;28;20129;-55
2023/12/25 10:17:43;;;;;;;19.50;3.78;;;11.00;99.90;;;;;;5017492;28;20112;-53
2023/12/25 10:20:12;;;;;;;11.27;3.45;;;11.00;99.90;;;;;;5018809;28;20030;-51
2023/12/25 10:22:38;;;;;;;4.18;1.83;;;11.10;99.90;;;;;;5014782;28;20076;-55
2023/12/25 10:25:06;;;;;;;7.90;2.60;;;11.00;99.90;;;;;;5021097;28;20456;-54
2023/12/25 10:27:39;;;;;;;12.73;3.35;;;11.10;99.90;;;;;;5015276;28;20652;-49
2023/12/25 10:30:14;;;;;;;13.32;4.03;;;11.10;99.90;;;;;;5014151;28;20022;-52
2023/12/25 10:32:39;;;;;;;8.00;2.53;;;11.10;99.90;;;;;;5019199;28;20451;-48
2023/12/25 10:35:17;;;;;;;5.82;1.88;;;11.10;99.90;;;;;;5021183;28;20125;-49
2023/12/25 10:37:45;;;;;;;14.85;4.93;;;11.20;99.90;;;;;;5018778;28;20030;-51
2023/12/25 10:40:24;;;;;;;9.95;4.22;;;11.20;99.90;;;;;;5022018;28;20029;-53
2023/12/25 10:42:51;;;;;;;10.25;3.90;;;11.20;99.90;;;;;;5018875;28;20022;-49
2023/12/25 10:45:22;;;;;;;9.50;3.00;;;11.20;99.90;;;;;;5020539;28;20430;-53
2023/12/25 10:47:53;;;;;;;9.82;2.95;;;11.20;99.90;;;;;;5021446;28;20029;-53
2023/12/25 10:50:25;;;;;;;10.23;3.60;;;11.20;99.90;;;;;;5019499;28;20033;-57
2023/12/25 10:52:51;;;;;;;5.35;1.90;;;11.20;99.90;;;;;;5023032;28;20030;-49
2023/12/25 10:55:41;;;;;;;7.82;2.67;;;11.20;99.90;;;;;;5026177;28;20030;-53
2023/12/25 10:58:08;;;;;;;4.93;1.77;;;11.30;99.90;;;;;;5007292;28;20116;-50
2023/12/25 11:00:40;;;;;;;4.07;1.88;;;11.40;99.90;;;;;;5021003;28;20438;-56
2023/12/25 11:03:06;;;;;;;8.07;2.97;;;11.40;99.90;;;;;;5023859;28;20027;-55
2023/12/25 11:05:32;;;;;;;7.63;2.25;;;11.40;99.90;;;;;;5024377;28;20412;-49
2023/12/25 11:07:58;;;;;;;5.60;2.20;;;11.40;99.90;;;;;;5023761;28;20030;-54
2023/12/25 11:10:29;;;;;;;7.63;2.67;;;11.50;99.90;;;;;;5025232;28;20025;-54
2023/12/25 11:12:56;;;;;;;4.18;1.98;;;11.50;99.90;;;;;;5021555;28;20036;-52
2023/12/25 11:15:23;;;;;;;8.05;2.33;;;11.50;99.90;;;;;;5016375;28;20030;-54
2023/12/25 11:17:49;;;;;;;8.02;2.65;;;11.50;99.90;;;;;;5016577;28;20091;-52
2023/12/25 11:20:15;;;;;;;5.50;1.98;;;11.60;99.90;;;;;;5017894;28;20552;-49
2023/12/25 11:22:41;;;;;;;6.22;2.45;;;11.60;99.90;;;;;;5022538;28;20030;-54
2023/12/25 11:25:20;;;;;;;9.57;3.15;;;11.60;99.90;;;;;;5015631;28;20113;-49
2023/12/25 11:27:54;;;;;;;13.32;4.40;;;11.60;99.90;;;;;;5022207;28;20036;-52
2023/12/25 11:30:24;;;;;;;7.80;3.33;;;11.60;99.90;;;;;;5017241;28;20462;-55
2023/12/25 11:32:50;;;;;;;6.68;2.45;;;11.60;99.90;;;;;;5021856;28;20812;-54
2023/12/25 11:35:28;;;;;;;6.32;2.58;;;11.70;99.90;;;;;;5025311;28;20030;-49
2023/12/25 11:38:24;;;;;;;13.02;4.68;;;11.70;99.90;;;;;;5022686;28;20061;-51
2023/12/25 11:40:50;;;;;;;4.55;2.95;;;11.70;99.90;;;;;;5018777;28;20022;-56
2023/12/25 11:43:20;;;;;;;10.00;4.00;;;11.70;99.90;;;;;;5025172;28;20032;-55
2023/12/25 11:45:46;;;;;;;5.22;2.67;;;11.70;99.90;;;;;;5016335;28;20026;-52
2023/12/25 11:48:14;;;;;;;6.30;2.97;;;11.80;99.90;;;;;;5025009;28;20491;-52
2023/12/25 11:50:43;;;;;;;9.57;3.25;;;11.70;99.90;;;;;;5022473;28;20074;-53
2023/12/25 11:53:09;;;;;;;11.93;5.00;;;11.80;99.90;;;;;;5024362;28;20041;-55
2023/12/25 11:55:35;;;;;;;12.13;5.00;;;11.80;99.90;;;;;;5022785;28;20083;-52
2023/12/25 11:58:02;;;;;;;3.72;1.50;;;11.80;99.90;;;;;;5022348;28;20383;-55
2023/12/25 12:00:31;;;;;;;3.85;1.92;;;11.70;99.90;;;;;;5016069;28;20049;-49
2023/12/25 12:02:57;;;;;;;5.70;2.63;;;11.80;99.90;;;;;;5013430;28;20026;-52
2023/12/25 12:05:22;;;;;;;2.20;1.45;;;11.70;99.90;;;;;;5017751;28;20024;-52
2023/12/25 12:07:48;;;;;;;1.13;0.98;;;11.70;99.90;;;;;;5021459;28;20829;-49
2023/12/25 12:10:14;;;;;;;3.83;2.00;;;11.70;99.90;;;;;;5024720;28;20373;-55
2023/12/25 12:12:41;;;;;;;2.83;1.10;;;11.80;99.90;;;;;;5019697;28;20042;-53
2023/12/25 12:15:07;;;;;;;1.05;0.70;;;11.80;99.90;;;;;;5019753;28;20026;-49
2023/12/25 12:17:35;;;;;;;1.30;0.38;;;11.80;99.90;;;;;;5017911;28;20077;-50
2023/12/25 12:20:02;;;;;;;0.55;0.40;;;11.80;99.90;;;;;;5018793;28;20030;-51
2023/12/25 12:22:27;;;;;;;0.40;0.40;;;11.80;99.90;;;;;;5023295;28;20030;-52
2023/12/25 12:25:10;;;;;;;0.43;0.43;;;11.80;99.90;;;;;;5021685;28;20029;-50
2023/12/25 12:27:35;;;;;;;0.50;0.43;;;11.80;99.90;;;;;;5015469;28;20184;-54
2023/12/25 12:30:01;;;;;;;0.60;0.60;;;11.80;99.90;;;;;;5022639;28;20126;-50
2023/12/25 12:32:27;;;;;;;0.85;0.70;;;11.90;99.90;;;;;;5020885;28;20029;-51
2023/12/25 12:34:52;;;;;;;0.68;0.68;;;11.80;99.90;;;;;;5021340;28;20034;-53
2023/12/25 12:37:20;;;;;;;0.50;0.50;;;11.90;99.90;;;;;;5038790;23;20025;-53
2023/12/25 12:39:46;;;;;;;1.17;0.77;;;11.90;99.90;;;;;;4984446;28;20049;-55
2023/12/25 12:42:11;;;;;;;0.63;0.63;;;11.90;99.90;;;;;;4990369;28;20022;-53